createdAt,value
2018-02-05T00:01:47.577Z,3.11
2018-02-05T00:04:15.149Z,3.09
2018-02-05T00:06:43.613Z,3.15
2018-02-05T00:09:11.167Z,3.18
2018-02-05T00:11:38.735Z,3.29
2018-02-05T00:14:06.281Z,3.29
2018-02-05T00:16:33.829Z,3.21
2018-02-05T00:19:01.406Z,3.22
2018-02-05T00:21:28.952Z,3.29
2018-02-05T00:23:56.504Z,3.18
2018-02-05T00:26:24.330Z,3.23
2018-02-05T00:28:51.865Z,3.22
2018-02-05T00:31:19.441Z,3.22
2018-02-05T00:33:47.171Z,3.24
2018-02-05T00:36:14.729Z,3.20
2018-02-05T00:38:42.288Z,3.20
2018-02-05T00:41:10.007Z,3.16
2018-02-05T00:43:37.572Z,3.08
2018-02-05T00:46:05.132Z,2.98
2018-02-05T00:48:32.799Z,2.92
2018-02-05T00:51:00.351Z,2.78
2018-02-05T00:53:27.907Z,2.77
2018-02-05T00:55:55.638Z,2.73
2018-02-05T00:58:23.192Z,2.72
2018-02-05T01:00:50.771Z,2.73
2018-02-05T01:03:18.348Z,2.62
2018-02-05T01:05:45.893Z,2.53
2018-02-05T01:08:13.443Z,2.50
2018-02-05T01:10:41.023Z,2.42
2018-02-05T01:13:08.569Z,2.39
2018-02-05T01:15:36.127Z,2.36
2018-02-05T01:18:03.709Z,2.41
2018-02-05T01:20:31.323Z,2.30
2018-02-05T01:22:58.881Z,2.40
2018-02-05T01:25:26.602Z,2.39
2018-02-05T01:27:54.146Z,2.41
2018-02-05T01:30:21.686Z,2.60
2018-02-05T01:32:49.264Z,2.40
2018-02-05T01:35:16.830Z,2.43
2018-02-05T01:37:44.382Z,2.38
2018-02-05T01:40:11.952Z,2.29
2018-02-05T01:42:39.525Z,2.44
2018-02-05T01:45:07.089Z,2.36
2018-02-05T01:47:34.662Z,2.16
2018-02-05T01:50:02.252Z,2.04
2018-02-05T01:52:29.802Z,1.87
2018-02-05T01:54:57.486Z,1.73
2018-02-05T01:57:25.043Z,1.76
2018-02-05T01:59:52.608Z,1.67
2018-02-05T02:02:20.299Z,1.67
2018-02-05T02:04:47.864Z,1.65
2018-02-05T02:07:15.422Z,1.72
2018-02-05T02:09:43.167Z,1.82
2018-02-05T02:12:10.711Z,1.80
2018-02-05T02:14:38.277Z,1.63
2018-02-05T02:17:06.022Z,1.70
2018-02-05T02:19:33.664Z,1.65
2018-02-05T02:22:01.230Z,1.67
2018-02-05T02:24:28.935Z,1.72
2018-02-05T02:26:56.544Z,1.80
2018-02-05T02:29:24.090Z,1.79
2018-02-05T02:31:51.779Z,1.81
2018-02-05T02:34:19.329Z,1.84
2018-02-05T02:36:46.877Z,1.74
2018-02-05T02:39:14.563Z,1.74
2018-02-05T02:41:42.120Z,1.68
2018-02-05T02:44:09.687Z,1.68
2018-02-05T02:46:37.612Z,1.67
2018-02-05T02:49:05.169Z,1.65
2018-02-05T02:51:32.716Z,1.47
2018-02-05T02:54:00.266Z,1.49
2018-02-05T02:56:27.843Z,1.54
2018-02-05T02:58:56.202Z,1.52
2018-02-05T03:01:23.754Z,1.54
2018-02-05T03:03:51.377Z,1.50
2018-02-05T03:06:20.988Z,1.55
2018-02-05T03:08:48.546Z,1.42
2018-02-05T03:11:16.091Z,1.44
2018-02-05T03:13:43.673Z,1.39
2018-02-05T03:16:11.219Z,1.39
2018-02-05T03:18:38.806Z,1.48
2018-02-05T03:21:06.495Z,1.36
2018-02-05T03:23:34.102Z,1.23
2018-02-05T03:26:01.666Z,1.13
2018-02-05T03:28:29.550Z,1.12
2018-02-05T03:30:57.099Z,1.10
2018-02-05T03:33:24.684Z,1.05
2018-02-05T03:35:52.434Z,1.02
2018-02-05T03:38:19.976Z,1.07
2018-02-05T03:40:47.549Z,1.05
2018-02-05T03:43:15.127Z,1.19
2018-02-05T03:45:42.691Z,1.28
2018-02-05T03:48:10.245Z,1.28
2018-02-05T03:50:37.933Z,1.18
2018-02-05T03:53:05.499Z,1.00
2018-02-05T03:55:33.041Z,1.05
2018-02-05T03:58:00.735Z,1.13
2018-02-05T04:00:28.351Z,1.20
2018-02-05T04:02:55.903Z,1.13
2018-02-05T04:05:23.473Z,1.15
2018-02-05T04:07:51.017Z,1.15
2018-02-05T04:10:18.570Z,1.25
2018-02-05T04:12:46.154Z,1.24
2018-02-05T04:15:13.701Z,1.30
2018-02-05T04:17:41.276Z,1.13
2018-02-05T04:20:08.992Z,1.02
2018-02-05T04:22:36.540Z,1.03
2018-02-05T04:25:04.106Z,1.17
2018-02-05T04:27:31.799Z,1.15
2018-02-05T04:29:59.346Z,1.19
2018-02-05T04:32:26.894Z,1.21
2018-02-05T04:34:54.818Z,1.29
2018-02-05T04:37:22.374Z,1.19
2018-02-05T04:39:49.922Z,1.20
2018-02-05T04:42:17.618Z,1.20
2018-02-05T04:44:45.163Z,1.24
2018-02-05T04:47:12.721Z,1.21
2018-02-05T04:49:40.586Z,1.08
2018-02-05T04:52:08.205Z,1.12
2018-02-05T04:54:35.757Z,1.14
2018-02-05T04:57:03.353Z,1.02
2018-02-05T04:59:30.908Z,0.99
2018-02-05T05:01:58.467Z,0.97
2018-02-05T05:04:26.041Z,0.99
2018-02-05T05:06:53.581Z,1.05
2018-02-05T05:09:21.121Z,1.15
2018-02-05T05:11:48.689Z,0.96
2018-02-05T05:14:16.231Z,0.87
2018-02-05T05:16:43.787Z,0.89
2018-02-05T05:19:12.632Z,0.83
2018-02-05T05:21:40.192Z,0.86
2018-02-05T05:24:07.738Z,0.87
2018-02-05T05:26:35.403Z,0.96
2018-02-05T05:29:02.977Z,0.92
2018-02-05T05:31:30.526Z,0.91
2018-02-05T05:33:58.120Z,0.89
2018-02-05T05:36:25.676Z,0.94
2018-02-05T05:38:53.236Z,1.00
2018-02-05T05:41:21.187Z,0.97
2018-02-05T05:43:48.750Z,0.99
2018-02-05T05:46:16.307Z,1.05
2018-02-05T05:48:44.001Z,0.97
2018-02-05T05:51:11.619Z,1.01
2018-02-05T05:53:39.187Z,1.09
2018-02-05T05:56:06.795Z,1.12
2018-02-05T05:58:34.353Z,1.26
2018-02-05T06:01:01.919Z,1.30
2018-02-05T06:03:29.831Z,1.29
2018-02-05T06:05:57.401Z,1.24
2018-02-05T06:08:24.961Z,1.19
2018-02-05T06:10:52.649Z,1.25
2018-02-05T06:13:20.208Z,1.35
2018-02-05T06:15:47.757Z,1.23
2018-02-05T06:18:15.328Z,1.27
2018-02-05T06:20:42.898Z,1.33
2018-02-05T06:23:10.439Z,1.35
2018-02-05T06:25:38.180Z,1.33
2018-02-05T06:28:05.734Z,1.47
2018-02-05T06:30:33.286Z,1.43
2018-02-05T06:33:00.899Z,1.51
2018-02-05T06:35:28.466Z,1.74
2018-02-05T06:37:56.027Z,2.54
2018-02-05T06:40:23.906Z,2.55
2018-02-05T06:42:51.493Z,2.62
2018-02-05T06:45:19.063Z,2.44
2018-02-05T06:47:46.746Z,2.44
2018-02-05T06:50:25.907Z,2.91
2018-02-05T06:56:10.394Z,4.26
2018-02-05T06:58:38.126Z,4.36
2018-02-05T07:01:05.686Z,4.11
2018-02-05T07:03:33.244Z,3.93
2018-02-05T07:06:00.822Z,3.77
2018-02-05T07:08:28.387Z,3.73
2018-02-05T07:10:55.945Z,3.40
2018-02-05T07:13:23.522Z,3.14
2018-02-05T07:15:51.147Z,3.02
2018-02-05T07:18:18.701Z,2.84
2018-02-05T07:20:46.290Z,2.81
2018-02-05T07:23:13.844Z,2.74
2018-02-05T07:25:41.388Z,2.72
2018-02-05T07:28:09.091Z,2.74
2018-02-05T07:30:36.633Z,2.73
2018-02-05T07:33:04.188Z,2.79
2018-02-05T07:35:31.909Z,2.90
2018-02-05T07:37:59.477Z,2.92
2018-02-05T07:40:27.024Z,2.95
2018-02-05T07:42:54.712Z,3.09
2018-02-05T07:45:22.261Z,3.15
2018-02-05T07:47:49.820Z,3.24
2018-02-05T07:50:17.550Z,3.25
2018-02-05T07:52:45.119Z,3.42
2018-02-05T07:55:12.671Z,3.53
2018-02-05T07:57:40.502Z,3.60
2018-02-05T08:00:08.060Z,3.54
2018-02-05T08:02:35.599Z,3.61
2018-02-05T08:05:03.186Z,3.68
2018-02-05T08:07:30.736Z,3.57
2018-02-05T08:09:58.294Z,3.57
2018-02-05T08:12:25.873Z,3.69
2018-02-05T08:14:53.435Z,3.82
2018-02-05T08:17:20.995Z,3.92
2018-02-05T08:19:49.457Z,3.92
2018-02-05T08:22:17.035Z,3.96
2018-02-05T08:24:44.579Z,3.91
2018-02-05T08:27:12.164Z,3.83
2018-02-05T08:29:39.719Z,3.93
2018-02-05T08:32:07.277Z,3.94
2018-02-05T08:34:34.976Z,4.16
2018-02-05T08:37:02.547Z,4.40
2018-02-05T08:39:30.095Z,4.59
2018-02-05T08:41:57.796Z,4.61
2018-02-05T08:44:25.348Z,4.62
2018-02-05T08:46:52.917Z,4.62
2018-02-05T08:49:20.643Z,4.57
2018-02-05T08:51:48.222Z,4.57
2018-02-05T09:18:46.693Z,4.03
2018-02-05T09:21:14.266Z,4.14
2018-02-05T09:23:41.842Z,4.26
2018-02-05T09:26:09.430Z,4.37
2018-02-05T09:28:36.978Z,4.37
2018-02-05T09:31:04.527Z,4.44
2018-02-05T09:33:32.402Z,4.45
2018-02-05T09:35:59.953Z,4.53
2018-02-05T09:38:27.502Z,4.50
2018-02-05T09:40:55.113Z,4.50
2018-02-05T09:43:22.671Z,4.52
2018-02-05T09:45:50.220Z,4.65
2018-02-05T09:48:17.919Z,4.66
2018-02-05T09:50:45.479Z,4.77
2018-02-05T09:53:13.033Z,4.84
2018-02-05T09:55:40.721Z,4.94
2018-02-05T09:58:08.277Z,5.06
2018-02-05T10:00:35.829Z,5.09
2018-02-05T10:03:03.757Z,5.08
2018-02-05T10:05:31.307Z,5.07
2018-02-05T10:07:58.866Z,5.14
2018-02-05T10:10:26.599Z,5.17
2018-02-05T10:12:54.205Z,5.08
2018-02-05T10:15:22.064Z,5.14
2018-02-05T10:17:49.760Z,5.22
2018-02-05T10:20:17.306Z,5.24
2018-02-05T10:22:44.892Z,5.17
2018-02-05T10:25:12.492Z,5.28
2018-02-05T10:27:40.040Z,5.31
2018-02-05T10:30:07.608Z,5.34
2018-02-05T10:32:35.186Z,5.46
2018-02-05T10:35:02.774Z,5.42
2018-02-05T10:37:30.346Z,5.49
2018-02-05T10:39:58.222Z,5.54
2018-02-05T10:42:25.766Z,5.57
2018-02-05T10:44:55.017Z,5.58
2018-02-05T10:47:22.697Z,5.59
2018-02-05T10:49:50.240Z,5.59
2018-02-05T10:52:17.807Z,5.47
2018-02-05T10:54:45.365Z,5.56
2018-02-05T10:57:12.920Z,5.61
2018-02-05T10:59:40.790Z,5.68
2018-02-05T11:02:08.339Z,5.66
2018-02-05T11:04:35.882Z,5.70
2018-02-05T11:07:03.462Z,5.79
2018-02-05T11:09:31.039Z,5.82
2018-02-05T11:11:58.588Z,5.80
2018-02-05T11:14:26.174Z,5.90
2018-02-05T11:16:53.718Z,6.00
2018-02-05T11:19:21.293Z,6.06
2018-02-05T11:21:49.010Z,6.12
2018-02-05T11:24:16.563Z,6.16
2018-02-05T11:26:44.126Z,6.17
2018-02-05T11:29:11.818Z,6.15
2018-02-05T11:31:39.384Z,6.28
2018-02-05T11:34:06.942Z,6.27
2018-02-05T11:36:34.519Z,6.38
2018-02-05T11:39:02.067Z,6.48
2018-02-05T11:41:29.615Z,6.50
2018-02-05T11:43:57.190Z,6.55
2018-02-05T11:46:24.729Z,6.54
2018-02-05T11:48:52.283Z,6.49
2018-02-05T11:51:19.885Z,6.58
2018-02-05T11:53:47.435Z,6.62
2018-02-05T11:56:14.984Z,6.70
2018-02-05T11:58:42.566Z,6.51
2018-02-05T12:01:10.137Z,6.66
2018-02-05T12:03:37.722Z,6.70
2018-02-05T12:06:05.423Z,6.66
2018-02-05T12:08:32.969Z,6.54
2018-02-05T12:11:00.542Z,6.59
2018-02-05T12:13:28.289Z,6.77
2018-02-05T12:15:55.845Z,6.84
2018-02-05T12:18:23.403Z,6.74
2018-02-05T12:20:51.152Z,6.70
2018-02-05T12:23:18.714Z,6.85
2018-02-05T12:25:46.276Z,6.92
2018-02-05T12:28:13.956Z,6.98
2018-02-05T12:30:41.529Z,6.99
2018-02-05T12:33:09.091Z,7.19
2018-02-05T12:35:36.849Z,7.28
2018-02-05T12:38:04.403Z,7.35
2018-02-05T12:40:31.950Z,7.36
2018-02-05T12:42:59.648Z,7.31
2018-02-05T12:45:27.202Z,7.23
2018-02-05T12:47:54.771Z,7.02
2018-02-05T12:50:22.502Z,6.95
2018-02-05T12:52:50.055Z,6.94
2018-02-05T12:55:17.612Z,7.00
2018-02-05T12:57:45.293Z,6.77
2018-02-05T13:00:18.229Z,6.81
2018-02-05T13:02:46.850Z,6.88
2018-02-05T13:05:27.114Z,7.02
2018-02-05T13:07:54.820Z,6.97
2018-02-05T13:10:22.393Z,7.10
2018-02-05T13:12:49.961Z,7.11
2018-02-05T13:15:17.563Z,7.20
2018-02-05T13:17:45.097Z,7.12
2018-02-05T13:20:12.715Z,7.07
2018-02-05T13:22:41.057Z,6.79
2018-02-05T13:25:08.622Z,6.88
2018-02-05T13:27:36.182Z,6.94
2018-02-05T13:30:04.080Z,6.95
2018-02-05T13:32:31.627Z,7.02
2018-02-05T13:34:59.175Z,6.97
2018-02-05T13:37:27.023Z,7.06
2018-02-05T13:39:54.617Z,6.95
2018-02-05T13:42:22.158Z,6.84
2018-02-05T13:44:49.742Z,6.84
2018-02-05T13:47:17.296Z,6.85
2018-02-05T13:49:44.843Z,6.78
2018-02-05T13:52:12.723Z,6.83
2018-02-05T13:54:40.285Z,6.76
2018-02-05T13:57:07.822Z,6.64
2018-02-05T13:59:35.509Z,6.64
2018-02-05T14:02:03.066Z,6.61
2018-02-05T14:04:30.600Z,6.61
2018-02-05T14:06:58.166Z,6.64
2018-02-05T14:09:25.714Z,6.54
2018-02-05T14:11:53.262Z,6.08
2018-02-05T14:14:20.856Z,5.72
2018-02-05T14:16:48.448Z,5.72
2018-02-05T14:19:16.022Z,5.49
2018-02-05T14:21:43.754Z,5.32
2018-02-05T14:24:12.033Z,5.18
2018-02-05T14:26:39.586Z,5.09
2018-02-05T14:29:07.189Z,5.20
2018-02-05T14:31:34.763Z,5.30
2018-02-05T14:34:02.321Z,5.22
2018-02-05T14:36:29.915Z,5.12
2018-02-05T14:38:57.476Z,5.00
2018-02-05T14:41:25.044Z,4.81
2018-02-05T14:43:52.662Z,4.57
2018-02-05T14:46:20.280Z,4.38
2018-02-05T14:48:47.826Z,4.30
2018-02-05T14:51:15.404Z,4.25
2018-02-05T14:53:42.970Z,4.19
2018-02-05T14:56:10.509Z,4.13
2018-02-05T14:58:38.256Z,4.09
2018-02-05T15:01:05.802Z,4.03
2018-02-05T15:03:33.355Z,3.97
2018-02-05T15:06:00.992Z,3.88
2018-02-05T15:08:28.601Z,3.76
2018-02-05T15:10:56.164Z,3.67
2018-02-05T15:13:23.747Z,3.65
2018-02-05T15:15:51.316Z,3.56
2018-02-05T15:18:18.876Z,3.46
2018-02-05T15:20:46.474Z,3.34
2018-02-05T15:23:14.013Z,3.28
2018-02-05T15:25:41.588Z,3.25
2018-02-05T15:28:09.163Z,3.23
2018-02-05T15:30:36.713Z,3.22
2018-02-05T15:33:04.287Z,3.10
2018-02-05T15:35:31.887Z,3.00
2018-02-05T15:37:59.458Z,2.92
2018-02-05T15:40:26.998Z,2.86
2018-02-05T15:42:54.729Z,2.83
2018-02-05T15:45:22.276Z,2.79
2018-02-05T15:47:49.834Z,2.83
2018-02-05T15:50:17.533Z,2.86
2018-02-05T15:52:46.861Z,2.81
2018-02-05T15:55:14.413Z,2.74
2018-02-05T15:57:42.154Z,2.71
2018-02-05T16:00:09.711Z,2.68
2018-02-05T16:02:37.275Z,2.65
2018-02-05T16:05:05.014Z,2.61
2018-02-05T16:07:32.586Z,2.57
2018-02-05T16:10:00.139Z,2.54
2018-02-05T16:12:27.893Z,2.58
2018-02-05T16:14:55.565Z,2.55
2018-02-05T16:17:23.132Z,2.48
2018-02-05T16:19:50.729Z,2.41
2018-02-05T16:22:18.278Z,2.33
2018-02-05T16:24:45.828Z,2.30
2018-02-05T16:27:13.436Z,2.25
2018-02-05T16:29:40.994Z,2.24
2018-02-05T16:32:08.596Z,2.29
2018-02-05T16:34:36.332Z,2.32
2018-02-05T16:37:03.887Z,2.29
2018-02-05T16:39:31.467Z,2.25
2018-02-05T16:41:59.173Z,2.26
2018-02-05T16:44:26.722Z,2.22
2018-02-05T16:46:54.276Z,2.17
2018-02-05T16:49:22.024Z,2.13
2018-02-05T16:51:49.586Z,2.14
2018-02-05T16:54:17.159Z,2.08
2018-02-05T16:56:44.838Z,2.05
2018-02-05T16:59:12.459Z,2.07
2018-02-05T17:01:40.065Z,2.02
2018-02-05T17:04:07.863Z,2.07
2018-02-05T17:06:35.438Z,2.02
2018-02-05T17:09:04.775Z,1.97
2018-02-05T17:11:32.497Z,1.93
2018-02-05T17:14:00.084Z,1.91
2018-02-05T17:16:27.647Z,1.98
2018-02-05T17:18:55.359Z,1.99
2018-02-05T17:21:22.942Z,1.95
2018-02-05T17:23:50.542Z,2.11
2018-02-05T17:26:18.384Z,2.13
2018-02-05T17:28:45.985Z,2.19
2018-02-05T17:31:13.573Z,2.06
2018-02-05T17:33:41.262Z,1.97
2018-02-05T17:36:08.872Z,2.05
2018-02-05T17:38:36.448Z,2.00
2018-02-05T17:41:04.256Z,2.07
2018-02-05T17:43:31.913Z,2.10
2018-02-05T17:45:59.518Z,2.10
2018-02-05T17:48:27.268Z,1.91
2018-02-05T17:50:54.846Z,1.93
2018-02-05T17:53:22.412Z,1.80
2018-02-05T17:55:49.986Z,1.79
2018-02-05T17:58:17.542Z,2.02
2018-02-05T18:00:45.126Z,2.11
2018-02-05T18:03:12.680Z,2.10
2018-02-05T18:05:40.255Z,2.05
2018-02-05T18:08:08.027Z,1.96
2018-02-05T18:10:35.590Z,2.18
2018-02-05T18:13:03.176Z,2.35
2018-02-05T18:15:31.147Z,2.19
2018-02-05T18:17:58.723Z,2.32
2018-02-05T18:20:26.336Z,2.44
2018-02-05T18:22:54.243Z,2.57
2018-02-05T18:25:21.823Z,2.62
2018-02-05T18:27:49.410Z,2.60
2018-02-05T18:30:17.010Z,2.72
2018-02-05T18:32:44.578Z,2.70
2018-02-05T18:35:12.183Z,2.58
2018-02-05T18:37:39.936Z,2.48
2018-02-05T18:40:07.482Z,2.43
2018-02-05T18:42:35.062Z,2.57
2018-02-05T18:45:02.661Z,2.59
2018-02-05T18:47:30.223Z,2.47
2018-02-05T18:49:57.803Z,2.23
2018-02-05T18:52:25.615Z,2.27
2018-02-05T18:54:53.166Z,2.33
2018-02-05T18:57:20.723Z,2.33
2018-02-05T18:59:48.418Z,2.49
2018-02-05T19:02:22.925Z,2.48
2018-02-05T19:04:50.739Z,2.47
2018-02-05T19:07:18.285Z,2.46
2018-02-05T19:09:45.855Z,2.49
2018-02-05T19:12:13.486Z,2.09
2018-02-05T19:14:41.046Z,1.87
2018-02-05T19:17:08.637Z,1.95
2018-02-05T19:19:36.425Z,1.83
2018-02-05T19:22:04.017Z,1.89
2018-02-05T19:24:31.585Z,1.78
2018-02-05T19:26:59.346Z,1.94
2018-02-05T19:29:26.931Z,1.87
2018-02-05T19:31:54.578Z,1.63
2018-02-05T19:34:23.307Z,1.49
2018-02-05T19:36:50.877Z,1.33
2018-02-05T19:39:18.467Z,1.34
2018-02-05T19:41:46.179Z,1.54
2018-02-05T19:44:13.765Z,1.64
2018-02-05T19:46:41.356Z,1.65
2018-02-05T19:49:09.218Z,1.48
2018-02-05T19:51:36.817Z,1.42
2018-02-05T19:54:04.395Z,1.20
2018-02-05T19:56:32.292Z,1.24
2018-02-05T19:58:59.867Z,1.37
2018-02-05T20:01:27.434Z,1.28
2018-02-05T20:03:55.239Z,1.12
2018-02-05T20:06:22.843Z,1.02
2018-02-05T20:08:50.422Z,0.89
2018-02-05T20:11:18.326Z,0.78
2018-02-05T20:13:45.889Z,0.71
2018-02-05T20:16:13.457Z,0.66
2018-02-05T20:18:41.215Z,0.64
2018-02-05T20:21:08.773Z,0.60
2018-02-05T20:23:36.321Z,0.56
2018-02-05T20:26:03.946Z,0.79
2018-02-05T20:28:31.506Z,0.72
2018-02-05T20:30:59.071Z,0.57
2018-02-05T20:33:26.902Z,0.50
2018-02-05T20:35:54.445Z,0.47
2018-02-05T20:38:21.998Z,0.38
2018-02-05T20:40:49.604Z,0.72
2018-02-05T20:43:17.179Z,0.55
2018-02-05T20:45:44.735Z,0.43
2018-02-05T20:48:12.570Z,0.35
2018-02-05T20:50:40.170Z,0.30
2018-02-05T20:53:07.744Z,0.30
2018-02-05T20:55:35.302Z,0.32
2018-02-05T20:58:02.906Z,0.31
2018-02-05T21:00:30.475Z,0.32
2018-02-05T21:02:58.042Z,0.38
2018-02-05T21:05:25.629Z,0.52
2018-02-05T21:07:53.230Z,0.48
2018-02-05T21:10:20.792Z,0.49
2018-02-05T21:12:48.352Z,0.50
2018-02-05T21:15:15.987Z,0.50
2018-02-05T21:17:43.539Z,0.52
2018-02-05T21:20:11.089Z,0.57
2018-02-05T21:22:39.011Z,0.78
2018-02-05T21:25:06.602Z,0.75
2018-02-05T21:27:34.164Z,0.76
2018-02-05T21:30:01.765Z,0.68
2018-02-05T21:32:29.344Z,0.85
2018-02-05T21:34:56.914Z,0.72
2018-02-05T21:37:24.790Z,0.61
2018-02-05T21:39:52.341Z,0.80
2018-02-05T21:42:19.969Z,0.79
2018-02-05T21:44:47.555Z,0.62
2018-02-05T21:47:15.122Z,0.47
2018-02-05T21:49:42.671Z,0.37
2018-02-05T21:52:10.278Z,0.26
2018-02-05T21:54:37.833Z,0.18
2018-02-05T21:57:05.398Z,0.15
2018-02-05T21:59:32.990Z,0.12
2018-02-05T22:02:00.534Z,0.12
2018-02-05T22:04:28.092Z,0.13
2018-02-05T22:06:55.663Z,0.11
2018-02-05T22:09:23.239Z,0.05
2018-02-05T22:11:50.793Z,0.08
2018-02-05T22:14:18.543Z,0.10
2018-02-05T22:16:46.101Z,0.09
2018-02-05T22:19:13.656Z,0.07
2018-02-05T22:21:41.413Z,0.07
2018-02-05T22:24:08.961Z,0.07
2018-02-05T22:26:36.508Z,0.09
2018-02-05T22:29:04.117Z,0.13
2018-02-05T22:31:31.680Z,0.18
2018-02-05T22:33:59.257Z,0.34
2018-02-05T22:36:26.858Z,0.34
2018-02-05T22:38:54.426Z,0.26
2018-02-05T22:41:21.975Z,0.25
2018-02-05T22:43:49.577Z,0.23
2018-02-05T22:46:17.127Z,0.27
2018-02-05T22:48:44.668Z,0.42
2018-02-05T22:51:12.262Z,0.47
2018-02-05T22:53:39.840Z,0.42
2018-02-05T22:56:07.400Z,0.45
2018-02-05T22:58:35.070Z,0.43
2018-02-05T23:01:02.609Z,0.46
2018-02-05T23:03:30.162Z,0.62
2018-02-05T23:05:57.750Z,0.83
2018-02-05T23:08:25.290Z,0.71
2018-02-05T23:10:52.841Z,0.63
2018-02-05T23:13:20.432Z,0.58
2018-02-05T23:15:48.000Z,0.55
2018-02-05T23:18:15.575Z,0.62
2018-02-05T23:20:43.694Z,0.61
2018-02-05T23:23:11.289Z,0.65
2018-02-05T23:25:38.853Z,0.70
2018-02-05T23:28:06.458Z,0.70
2018-02-05T23:30:34.019Z,0.73
2018-02-05T23:33:01.575Z,0.76
2018-02-05T23:35:29.318Z,0.88
2018-02-05T23:37:56.875Z,1.02
2018-02-05T23:40:24.427Z,1.16
2018-02-05T23:42:52.049Z,1.00
2018-02-05T23:45:19.596Z,1.23
2018-02-05T23:47:47.138Z,1.15
2018-02-05T23:50:14.863Z,1.19
2018-02-05T23:52:42.428Z,1.25
2018-02-05T23:55:09.986Z,1.19
2018-02-05T23:57:38.098Z,1.14
